Time;durP1;ratioP1;P1;durP2;ratioP2;P2;SDS_P1;SDS_P2;PMS_P1;PMS_P2;Temp;Humidity;BMP_temperature;BMP_pressure;BME280_temperature;BME280_humidity;BME280_pressure;Samples;Min_cycle;Max_cycle;Signal;HPM_P1;HPM_P2
2023/06/20 00:02:46;;;;;;;;;;;;;;;24.88;50.29;100675.16;2215809;78;52648;-78
2023/06/20 00:05:47;;;;;;;;;;;;;;;24.88;50.32;100675.16;2259518;78;50264;-77
2023/06/20 00:08:50;;;;;;;;;;;;;;;24.88;50.34;100683.81;2236557;78;50402;-78
2023/06/20 00:11:52;;;;;;;;;;;;;;;24.88;50.33;100683.28;2255622;78;50477;-76
2023/06/20 00:14:53;;;;;;;;;;;;;;;24.87;50.35;100681.64;2211239;79;51554;-77
2023/06/20 00:17:55;;;;;;;;;;;;;;;24.88;50.38;100688.70;2258131;77;50796;-77
2023/06/20 00:20:57;;;;;;;;;;;;;;;24.86;50.43;100685.91;2254489;79;50639;-77
2023/06/20 00:23:58;;;;;;;;;;;;;;;24.87;50.46;100680.29;2254554;79;51464;-78
2023/06/20 00:27:03;;;;;;;;;;;;;;;24.87;50.50;100682.17;2254502;79;51539;-77
2023/06/20 00:30:05;;;;;;;;;;;;;;;24.88;50.50;100685.17;2231870;79;52524;-77
2023/06/20 00:33:07;;;;;;;;;;;;;;;24.89;50.50;100680.05;2231471;79;50261;-77
2023/06/20 00:36:08;;;;;;;;;;;;;;;24.90;50.48;100685.78;2254641;79;50298;-76
2023/06/20 00:39:14;;;;;;;;;;;;;;;24.89;50.56;100680.05;2207252;79;52299;-75
2023/06/20 00:42:17;;;;;;;;;;;;;;;24.89;50.54;100682.75;2231387;79;22371;-76
2023/06/20 00:45:32;;;;;;;;;;;;;;;24.89;50.57;100676.84;2254426;79;50671;-76
2023/06/20 00:48:34;;;;;;;;;;;;;;;24.88;50.52;100671.11;2254442;79;50408;-77
2023/06/20 00:51:37;;;;;;;;;;;;;;;24.90;50.50;100669.01;2231334;78;51642;-76
2023/06/20 00:54:38;;;;;;;;;;;;;;;24.89;50.60;100663.81;2254411;79;51689;-77
2023/06/20 00:57:42;;;;;;;;;;;;;;;24.88;50.60;100658.92;2254357;79;50754;-77
2023/06/20 01:00:44;;;;;;;;;;;;;;;24.90;50.60;100661.42;2254607;79;51502;-77
2023/06/20 01:03:50;;;;;;;;;;;;;;;24.88;50.65;100656.75;2231518;78;51212;-74
2023/06/20 01:06:50;;;;;;;;;;;;;;;24.89;50.56;100656.54;2253617;77;22360;-77
2023/06/20 01:09:53;;;;;;;;;;;;;;;24.90;50.51;100645.18;2254475;79;51572;-77
2023/06/20 01:12:56;;;;;;;;;;;;;;;24.90;50.63;100648.70;2254138;79;51530;-77
2023/06/20 01:16:00;;;;;;;;;;;;;;;24.89;50.70;100632.68;2228188;79;52356;-75
2023/06/20 01:19:03;;;;;;;;;;;;;;;24.87;50.72;100632.11;2254237;79;51348;-77
2023/06/20 01:22:06;;;;;;;;;;;;;;;24.88;50.65;100633.22;2253947;78;51609;-76
2023/06/20 01:25:09;;;;;;;;;;;;;;;24.88;50.64;100632.39;2254360;79;50691;-76
2023/06/20 01:28:22;;;;;;;;;;;;;;;24.91;50.55;100638.70;2231720;79;50923;-77
2023/06/20 01:31:31;;;;;;;;;;;;;;;24.92;50.48;100638.49;2254530;79;51630;-77
2023/06/20 01:34:33;;;;;;;;;;;;;;;24.95;50.42;100635.86;2254471;79;51453;-77
2023/06/20 01:37:34;;;;;;;;;;;;;;;24.90;50.55;100632.47;2254297;79;51560;-76
2023/06/20 01:40:37;;;;;;;;;;;;;;;24.90;50.54;100634.36;2231249;79;51109;-76
2023/06/20 01:43:38;;;;;;;;;;;;;;;24.89;50.52;100627.27;2231362;79;50771;-76
2023/06/20 01:46:40;;;;;;;;;;;;;;;24.89;50.54;100635.39;2254328;79;51549;-77
2023/06/20 01:49:42;;;;;;;;;;;;;;;24.88;50.50;100627.80;2254388;79;51412;-75
2023/06/20 01:52:44;;;;;;;;;;;;;;;24.90;50.42;100636.53;2231602;79;51602;-77
2023/06/20 01:55:45;;;;;;;;;;;;;;;24.89;50.37;100630.83;2231482;79;51368;-75
2023/06/20 01:58:47;;;;;;;;;;;;;;;24.88;50.38;100629.16;2254449;79;50713;-75
2023/06/20 02:01:48;;;;;;;;;;;;;;;24.88;50.34;100625.09;2254439;78;51410;-75
2023/06/20 02:04:50;;;;;;;;;;;;;;;24.88;50.31;100627.80;2231273;79;50076;-75
2023/06/20 02:07:52;;;;;;;;;;;;;;;24.89;50.30;100621.86;2254296;79;51529;-76
2023/06/20 02:10:53;;;;;;;;;;;;;;;24.89;50.25;100617.80;2254268;79;51603;-75
2023/06/20 02:13:55;;;;;;;;;;;;;;;24.89;50.25;100620.50;2254311;79;50617;-76
2023/06/20 02:17:00;;;;;;;;;;;;;;;24.89;50.19;100618.65;2231131;79;51652;-76
2023/06/20 02:20:00;;;;;;;;;;;;;;;24.88;50.20;100625.09;2254458;77;22344;-75
2023/06/20 02:23:02;;;;;;;;;;;;;;;24.88;50.19;100620.21;2254275;77;50454;-75
2023/06/20 02:26:08;;;;;;;;;;;;;;;24.88;50.25;100622.39;2254542;79;51449;-76
2023/06/20 02:29:08;;;;;;;;;;;;;;;24.92;50.16;100613.28;2254492;78;22445;-76
2023/06/20 02:32:10;;;;;;;;;;;;;;;24.92;50.26;100620.05;2254559;78;50694;-76
2023/06/20 02:35:12;;;;;;;;;;;;;;;24.91;50.21;100621.93;2254496;79;52486;-76
2023/06/20 02:38:13;;;;;;;;;;;;;;;24.92;50.16;100624.95;2255199;78;51544;-76
2023/06/20 02:41:15;;;;;;;;;;;;;;;24.91;50.16;100619.22;2294421;76;50696;-77
2023/06/20 02:44:17;;;;;;;;;;;;;;;24.93;50.13;100621.19;2293382;75;49432;-77
2023/06/20 02:47:20;;;;;;;;;;;;;;;24.94;50.06;100622.00;2293347;77;50646;-76
2023/06/20 02:50:23;;;;;;;;;;;;;;;24.92;50.18;100623.60;2315408;75;50727;-76
2023/06/20 02:53:33;;;;;;;;;;;;;;;24.93;50.16;100628.48;2293259;77;50932;-76
2023/06/20 02:56:35;;;;;;;;;;;;;;;24.93;50.11;100639.31;2315182;77;51433;-76
2023/06/20 02:59:36;;;;;;;;;;;;;;;24.93;50.11;100637.95;2315418;76;51569;-76
2023/06/20 03:02:45;;;;;;;;;;;;;;;24.94;50.03;100643.13;2315442;75;50618;-75
2023/06/20 03:05:47;;;;;;;;;;;;;;;24.92;50.07;100630.88;2292347;76;51147;-76
2023/06/20 03:08:49;;;;;;;;;;;;;;;24.93;50.02;100637.42;2301882;75;51524;-77
2023/06/20 03:11:51;;;;;;;;;;;;;;;24.94;49.97;100635.54;2265291;76;50050;-76
2023/06/20 03:14:52;;;;;;;;;;;;;;;24.94;49.98;100627.42;2254487;77;51550;-76
2023/06/20 03:17:54;;;;;;;;;;;;;;;24.94;49.92;100640.95;2230871;77;50809;-76
2023/06/20 03:20:56;;;;;;;;;;;;;;;24.93;49.94;100641.48;2231289;79;50408;-75
2023/06/20 03:23:57;;;;;;;;;;;;;;;24.91;49.99;100649.00;2254247;78;50613;-77
2023/06/20 03:26:59;;;;;;;;;;;;;;;24.91;49.99;100651.70;2231716;79;51452;-77
2023/06/20 03:30:00;;;;;;;;;;;;;;;24.93;49.91;100655.55;2207659;79;52443;-76
2023/06/20 03:33:02;;;;;;;;;;;;;;;24.91;49.95;100656.30;2254462;78;51599;-76
2023/06/20 03:36:04;;;;;;;;;;;;;;;24.92;49.93;100660.64;2231209;77;51396;-76
2023/06/20 03:39:05;;;;;;;;;;;;;;;24.93;49.96;100659.61;2246320;77;50634;-77
2023/06/20 03:42:07;;;;;;;;;;;;;;;24.92;49.91;100658.79;2239017;78;52371;-75
2023/06/20 03:45:08;;;;;;;;;;;;;;;24.89;50.05;100657.04;2233903;79;52377;-74
2023/06/20 03:48:10;;;;;;;;;;;;;;;24.89;49.99;100655.69;2233347;79;52447;-74
2023/06/20 03:51:12;;;;;;;;;;;;;;;24.90;50.02;100660.06;2257199;77;50223;-74
2023/06/20 03:54:13;;;;;;;;;;;;;;;24.91;50.00;100665.77;2211203;79;51123;-73
2023/06/20 03:57:15;;;;;;;;;;;;;;;24.92;49.95;100662.00;2233834;78;50536;-73
2023/06/20 04:00:16;;;;;;;;;;;;;;;24.90;49.97;100656.83;2234166;79;51583;-73
2023/06/20 04:03:18;;;;;;;;;;;;;;;24.90;49.97;100662.77;2233999;79;50612;-75
2023/06/20 04:06:20;;;;;;;;;;;;;;;24.89;49.93;100665.16;2233596;79;52402;-73
2023/06/20 04:09:26;;;;;;;;;;;;;;;24.90;49.86;100660.06;2233562;78;50101;-73
2023/06/20 04:12:24;;;;;;;;;;;;;;;24.89;49.91;100660.60;2255908;79;21751;-74
2023/06/20 04:15:27;;;;;;;;;;;;;;;24.89;49.88;100663.30;2257246;79;50291;-75
2023/06/20 04:18:29;;;;;;;;;;;;;;;24.90;49.85;100665.48;2233943;79;51670;-74
2023/06/20 04:21:31;;;;;;;;;;;;;;;24.89;49.85;100675.98;2210191;79;52301;-73
2023/06/20 04:24:32;;;;;;;;;;;;;;;24.90;49.81;100678.48;2234083;78;51484;-75
2023/06/20 04:27:34;;;;;;;;;;;;;;;24.90;49.80;100675.77;2234546;78;50626;-75
2023/06/20 04:30:36;;;;;;;;;;;;;;;24.90;49.77;100677.66;2234134;79;51932;-74
2023/06/20 04:33:43;;;;;;;;;;;;;;;24.89;49.79;100675.98;2233906;78;51055;-73
2023/06/20 04:36:40;;;;;;;;;;;;;;;24.89;49.90;100680.90;2233826;78;22761;-76
2023/06/20 04:39:42;;;;;;;;;;;;;;;24.93;49.87;100678.03;2233946;78;53894;-75
2023/06/20 04:42:47;;;;;;;;;;;;;;;24.95;49.82;100677.28;2231654;79;51458;-75
2023/06/20 04:45:48;;;;;;;;;;;;;;;24.94;49.82;100670.20;2231982;78;51807;-75
2023/06/20 04:48:50;;;;;;;;;;;;;;;24.97;49.74;100677.04;2231278;78;50363;-76
2023/06/20 04:51:51;;;;;;;;;;;;;;;24.97;49.71;100684.66;2254288;79;50232;-76
2023/06/20 04:54:53;;;;;;;;;;;;;;;24.97;49.72;100680.60;2254324;79;50623;-75
2023/06/20 04:57:56;;;;;;;;;;;;;;;24.98;49.69;100681.42;2207513;79;52564;-75
2023/06/20 05:00:58;;;;;;;;;;;;;;;24.96;49.68;100685.69;2254407;79;50343;-75
2023/06/20 05:04:00;;;;;;;;;;;;;;;24.97;49.62;100687.87;2254355;79;51556;-74
2023/06/20 05:07:01;;;;;;;;;;;;;;;24.97;49.58;100686.52;2254123;79;51446;-74
2023/06/20 05:10:04;;;;;;;;;;;;;;;24.97;49.58;100687.87;2263725;77;51725;-74
2023/06/20 05:13:06;;;;;;;;;;;;;;;24.99;49.53;100693.89;2241489;77;50881;-74
2023/06/20 05:16:07;;;;;;;;;;;;;;;24.99;49.53;100694.71;2231377;79;50397;-73
2023/06/20 05:19:09;;;;;;;;;;;;;;;24.98;49.54;100695.77;2254620;79;50185;-76
2023/06/20 05:22:10;;;;;;;;;;;;;;;24.97;49.53;100695.48;2231720;78;51460;-76
2023/06/20 05:25:12;;;;;;;;;;;;;;;24.98;49.29;100701.72;2231449;79;51462;-75
2023/06/20 05:28:14;;;;;;;;;;;;;;;24.94;49.29;100704.03;2231378;79;49986;-76
2023/06/20 05:31:15;;;;;;;;;;;;;;;24.88;49.29;100706.30;2254448;78;51468;-75
2023/06/20 05:34:17;;;;;;;;;;;;;;;24.82;49.41;100707.73;2207778;79;51710;-75
2023/06/20 05:37:19;;;;;;;;;;;;;;;24.82;49.40;100713.97;2231367;78;50771;-75
2023/06/20 05:40:20;;;;;;;;;;;;;;;24.76;49.48;100701.30;2257226;78;51475;-76
2023/06/20 05:43:22;;;;;;;;;;;;;;;24.64;49.71;100697.70;2234715;77;51472;-76
2023/06/20 05:46:23;;;;;;;;;;;;;;;24.67;49.68;100704.02;2235784;78;52316;-76
2023/06/20 05:49:25;;;;;;;;;;;;;;;24.73;49.85;100701.76;2236490;78;50259;-76
2023/06/20 05:52:26;;;;;;;;;;;;;;;24.75;49.90;100708.60;2235762;78;50041;-75
2023/06/20 05:55:28;;;;;;;;;;;;;;;24.78;49.95;100710.86;2235688;78;49969;-77
2023/06/20 05:58:30;;;;;;;;;;;;;;;24.82;50.04;100709.91;2278027;77;50086;-77
2023/06/20 06:01:31;;;;;;;;;;;;;;;24.85;50.06;100714.05;2315313;77;51437;-77
2023/06/20 06:04:33;;;;;;;;;;;;;;;24.90;50.05;100719.09;2315146;76;50625;-77
2023/06/20 06:07:37;;;;;;;;;;;;;;;24.98;49.92;100720.14;2292884;77;50747;-77
2023/06/20 06:10:38;;;;;;;;;;;;;;;25.02;49.96;100716.98;2277313;77;22608;-78
2023/06/20 06:13:39;;;;;;;;;;;;;;;25.02;50.03;100715.63;2257354;77;50394;-78
2023/06/20 06:16:41;;;;;;;;;;;;;;;24.99;50.06;100715.02;2234035;79;51351;-77
2023/06/20 06:19:43;;;;;;;;;;;;;;;25.06;49.92;100723.61;2257388;79;51490;-78
2023/06/20 06:22:45;;;;;;;;;;;;;;;25.08;49.86;100720.98;2210414;79;51643;-77
2023/06/20 06:25:47;;;;;;;;;;;;;;;25.09;49.86;100722.63;2233992;79;50651;-77
2023/06/20 06:28:49;;;;;;;;;;;;;;;25.16;49.77;100719.36;2233759;79;50301;-78
2023/06/20 06:31:50;;;;;;;;;;;;;;;25.24;49.73;100718.23;2257392;79;51504;-77
2023/06/20 06:34:52;;;;;;;;;;;;;;;25.29;49.60;100718.37;2233695;79;51705;-77
2023/06/20 06:37:53;;;;;;;;;;;;;;;25.29;49.69;100710.79;2259273;77;51499;-78
2023/06/20 06:40:55;;;;;;;;;;;;;;;25.33;49.57;100715.53;2248175;78;51359;-78
2023/06/20 06:43:57;;;;;;;;;;;;;;;25.37;49.54;100709.13;2254856;79;50731;-78
2023/06/20 06:47:00;;;;;;;;;;;;;;;25.38;49.50;100721.09;2231289;79;51404;-78
2023/06/20 06:50:02;;;;;;;;;;;;;;;25.41;49.37;100719.28;2232691;79;22464;-78
2023/06/20 06:53:03;;;;;;;;;;;;;;;25.47;49.29;100724.31;2231668;79;53505;-79
2023/06/20 06:56:05;;;;;;;;;;;;;;;25.51;49.19;100724.67;2254919;79;50635;-80
2023/06/20 06:59:07;;;;;;;;;;;;;;;25.53;49.22;100726.64;2207893;79;51120;-79
2023/06/20 07:02:09;;;;;;;;;;;;;;;25.57;49.04;100725.14;2255181;76;52606;-80
2023/06/20 07:05:10;;;;;;;;;;;;;;;25.61;48.99;100724.97;2293345;77;52045;-79
2023/06/20 07:08:12;;;;;;;;;;;;;;;25.60;48.94;100720.08;2305813;77;50214;-77
2023/06/20 07:11:13;;;;;;;;;;;;;;;25.62;48.95;100719.86;2243154;77;50872;-77
2023/06/20 07:14:15;;;;;;;;;;;;;;;25.56;49.04;100722.11;2233733;79;50505;-78
2023/06/20 07:17:16;;;;;;;;;;;;;;;25.51;49.12;100708.42;2257506;78;50783;-78
2023/06/20 07:20:18;;;;;;;;;;;;;;;25.46;49.18;100707.77;2257810;79;51579;-78
2023/06/20 07:23:20;;;;;;;;;;;;;;;25.44;49.17;100703.64;2257837;78;51344;-79
2023/06/20 07:26:21;;;;;;;;;;;;;;;25.43;49.49;100704.14;2234406;79;51313;-78
2023/06/20 07:29:23;;;;;;;;;;;;;;;25.44;49.82;100709.05;2257669;79;50240;-78
2023/06/20 07:32:24;;;;;;;;;;;;;;;25.42;49.42;100703.31;2257489;78;50032;-77
2023/06/20 07:35:26;;;;;;;;;;;;;;;25.39;49.52;100702.42;2234536;79;52386;-78
2023/06/20 07:38:27;;;;;;;;;;;;;;;25.36;49.55;100704.23;2261589;77;50780;-78
2023/06/20 07:41:29;;;;;;;;;;;;;;;25.37;49.56;100719.95;2275958;77;50345;-77
2023/06/20 07:44:31;;;;;;;;;;;;;;;25.35;49.64;100732.36;2255160;79;50349;-78
2023/06/20 07:47:32;;;;;;;;;;;;;;;25.34;49.72;100740.20;2231570;79;51209;-78
2023/06/20 07:50:34;;;;;;;;;;;;;;;25.34;49.73;100741.55;2231226;78;50269;-78
2023/06/20 07:53:35;;;;;;;;;;;;;;;25.36;49.68;100728.62;2254929;79;50361;-78
2023/06/20 07:56:37;;;;;;;;;;;;;;;25.38;49.69;100721.60;2254500;77;50624;-77
2023/06/20 07:59:39;;;;;;;;;;;;;;;25.40;49.65;100716.25;2208284;79;50144;-77
2023/06/20 08:02:40;;;;;;;;;;;;;;;25.42;49.63;100718.22;2254508;79;50576;-77
2023/06/20 08:05:42;;;;;;;;;;;;;;;25.46;49.60;100722.67;2254304;78;50383;-77
2023/06/20 08:08:44;;;;;;;;;;;;;;;25.45;49.63;100724.24;2232543;78;50110;-77
2023/06/20 08:11:45;;;;;;;;;;;;;;;25.46;49.55;100728.09;2209425;78;50145;-77
2023/06/20 08:14:47;;;;;;;;;;;;;;;25.45;49.62;100722.89;2257736;78;50388;-77
2023/06/20 08:17:48;;;;;;;;;;;;;;;25.42;49.65;100717.39;2257628;78;50015;-77
2023/06/20 08:20:50;;;;;;;;;;;;;;;25.40;49.67;100716.79;2257695;77;50755;-77
2023/06/20 08:23:52;;;;;;;;;;;;;;;25.38;49.68;100723.80;2234826;78;51655;-77
2023/06/20 08:26:53;;;;;;;;;;;;;;;25.39;49.69;100732.76;2257674;78;51414;-77
2023/06/20 08:29:55;;;;;;;;;;;;;;;25.36;49.70;100734.56;2257816;79;50210;-77
2023/06/20 08:32:56;;;;;;;;;;;;;;;25.36;49.73;100734.03;2234452;79;50234;-77
2023/06/20 08:35:58;;;;;;;;;;;;;;;25.35;49.75;100733.72;2210703;78;51687;-77
2023/06/20 08:39:00;;;;;;;;;;;;;;;25.35;49.73;100739.66;2238128;78;50618;-77
2023/06/20 08:42:02;;;;;;;;;;;;;;;25.34;49.73;100743.44;2298007;77;50824;-78
2023/06/20 08:45:04;;;;;;;;;;;;;;;25.35;49.72;100736.95;2315920;77;51686;-77
2023/06/20 08:48:05;;;;;;;;;;;;;;;25.34;49.74;100739.38;2294021;77;50702;-77
2023/06/20 08:51:07;;;;;;;;;;;;;;;25.33;49.73;100730.43;2315970;76;51584;-78
2023/06/20 08:54:13;;;;;;;;;;;;;;;25.33;49.73;100729.08;2316059;76;51534;-78
2023/06/20 08:57:12;;;;;;;;;;;;;;;25.33;49.73;100734.99;2315677;76;22428;-78
2023/06/20 09:00:17;;;;;;;;;;;;;;;25.33;49.73;100734.49;2268938;77;52347;-77
2023/06/20 09:03:19;;;;;;;;;;;;;;;25.32;49.72;100754.48;2293812;77;50083;-77
2023/06/20 09:06:37;;;;;;;;;;;;;;;25.29;49.78;100767.13;2315484;76;51539;-77
2023/06/20 09:09:39;;;;;;;;;;;;;;;25.32;49.71;100773.45;2260345;78;21907;-78
2023/06/20 09:12:52;;;;;;;;;;;;;;;25.30;49.76;100784.20;2257307;79;22331;-78
2023/06/20 09:15:58;;;;;;;;;;;;;;;25.30;49.75;100798.56;2234457;79;51527;-79
2023/06/20 09:19:02;;;;;;;;;;;;;;;25.29;49.76;100819.13;2258592;77;22096;-78
2023/06/20 09:22:04;;;;;;;;;;;;;;;25.27;49.86;100837.47;2234936;78;50653;-79
2023/06/20 09:25:08;;;;;;;;;;;;;;;25.27;49.92;100844.24;2210734;79;51773;-78
2023/06/20 09:28:16;;;;;;;;;;;;;;;25.27;49.87;100843.71;2257902;79;50768;-78
2023/06/20 09:31:19;;;;;;;;;;;;;;;25.28;49.97;100860.28;2257594;78;52398;-78
2023/06/20 09:34:21;;;;;;;;;;;;;;;25.29;49.98;100867.87;2257066;78;50280;-77
2023/06/20 09:37:27;;;;;;;;;;;;;;;25.26;50.14;100875.92;2257179;79;50267;-78
2023/06/20 09:40:26;;;;;;;;;;;;;;;25.28;50.16;100872.97;2240625;77;22592;-77
2023/06/20 09:43:27;;;;;;;;;;;;;;;25.29;50.21;100881.42;2293422;77;50699;-78
2023/06/20 09:46:29;;;;;;;;;;;;;;;25.29;50.43;100886.30;2315776;77;50677;-77
2023/06/20 09:49:31;;;;;;;;;;;;;;;25.31;50.42;100888.27;2315873;76;52173;-78
2023/06/20 09:52:40;;;;;;;;;;;;;;;25.30;50.54;100877.12;2316125;77;50616;-78
2023/06/20 09:55:41;;;;;;;;;;;;;;;25.29;50.82;100863.81;2315728;76;51550;-78
2023/06/20 09:58:45;;;;;;;;;;;;;;;25.29;50.79;100863.28;2315934;76;51355;-78
2023/06/20 10:01:46;;;;;;;;;;;;;;;25.29;50.87;100876.00;2293583;77;51347;-78
2023/06/20 10:04:48;;;;;;;;;;;;;;;25.30;51.06;100874.41;2316214;77;51464;-78
2023/06/20 10:07:51;;;;;;;;;;;;;;;25.30;51.05;100876.30;2316021;76;51505;-77
2023/06/20 10:10:52;;;;;;;;;;;;;;;25.29;51.12;100881.42;2261727;76;50156;-78
2023/06/20 10:13:54;;;;;;;;;;;;;;;25.30;51.07;100871.70;2231665;79;49621;-77
2023/06/20 10:16:56;;;;;;;;;;;;;;;25.29;51.20;100859.75;2254041;79;50691;-76
2023/06/20 10:19:58;;;;;;;;;;;;;;;25.30;51.14;100863.58;2231289;79;51427;-76
2023/06/20 10:23:04;;;;;;;;;;;;;;;25.30;51.43;100861.40;2231438;78;50909;-75
2023/06/20 10:26:05;;;;;;;;;;;;;;;25.29;51.58;100852.98;2262487;77;22559;-76
2023/06/20 10:29:06;;;;;;;;;;;;;;;25.27;51.48;100854.55;2248121;77;50536;-76
2023/06/20 10:32:13;;;;;;;;;;;;;;;25.28;51.42;100859.43;2275060;77;51442;-76
2023/06/20 10:35:15;;;;;;;;;;;;;;;25.28;51.35;100858.93;2261736;76;23205;-76
2023/06/20 10:38:17;;;;;;;;;;;;;;;25.28;51.40;100849.95;2250069;77;51182;-76
2023/06/20 10:41:23;;;;;;;;;;;;;;;25.28;51.47;100850.80;2270702;76;50296;-76
2023/06/20 10:44:30;;;;;;;;;;;;;;;25.25;51.90;100843.09;2284275;77;51335;-75
2023/06/20 10:47:32;;;;;;;;;;;;;;;25.24;52.11;100834.69;2281295;76;51525;-77
2023/06/20 10:50:33;;;;;;;;;;;;;;;25.26;52.30;100828.52;2280824;77;51480;-76
2023/06/20 10:53:35;;;;;;;;;;;;;;;25.26;52.11;100827.17;2286334;77;50258;-76
2023/06/20 10:56:36;;;;;;;;;;;;;;;25.26;52.43;100821.75;2257847;77;51374;-75
2023/06/20 10:59:38;;;;;;;;;;;;;;;25.23;52.52;100828.12;2282139;77;51566;-76
2023/06/20 11:02:40;;;;;;;;;;;;;;;25.26;52.61;100820.41;2224789;77;51233;-76
2023/06/20 11:05:42;;;;;;;;;;;;;;;25.29;52.51;100818.59;2281947;77;51528;-75
2023/06/20 11:08:45;;;;;;;;;;;;;;;25.28;52.81;100812.89;2299020;76;50292;-75
2023/06/20 11:11:47;;;;;;;;;;;;;;;25.27;52.81;100807.68;2275342;77;50812;-75
2023/06/20 11:14:49;;;;;;;;;;;;;;;25.27;52.92;100804.44;2266779;77;51043;-75
2023/06/20 11:17:50;;;;;;;;;;;;;;;25.30;52.88;100789.63;2294976;76;50280;-75
2023/06/20 11:20:58;;;;;;;;;;;;;;;25.32;53.07;100796.47;2250341;77;50146;-74
2023/06/20 11:23:59;;;;;;;;;;;;;;;25.28;53.29;100788.52;2278965;76;22425;-75
2023/06/20 11:27:10;;;;;;;;;;;;;;;25.31;53.33;100777.22;2243266;76;51189;-74
2023/06/20 11:30:13;;;;;;;;;;;;;;;25.31;53.58;100773.69;2286635;77;50817;-75
2023/06/20 11:33:16;;;;;;;;;;;;;;;25.31;53.46;100771.80;2258264;77;50267;-74
2023/06/20 11:36:17;;;;;;;;;;;;;;;25.33;53.70;100776.98;2291638;76;50369;-75
2023/06/20 11:39:19;;;;;;;;;;;;;;;25.32;53.65;100776.16;2239249;76;50473;-78
2023/06/20 11:42:21;;;;;;;;;;;;;;;25.35;53.85;100772.99;2286891;77;50309;-74
2023/06/20 11:45:29;;;;;;;;;;;;;;;25.34;53.90;100772.70;2290914;77;50267;-74
2023/06/20 11:48:29;;;;;;;;;;;;;;;25.32;53.56;100772.09;2281030;77;22180;-75
2023/06/20 11:51:30;;;;;;;;;;;;;;;25.32;53.81;100776.16;2289155;76;50645;-76
2023/06/20 11:54:51;;;;;;;;;;;;;;;25.33;53.94;100768.35;2256363;76;50342;-76
2023/06/20 11:57:53;;;;;;;;;;;;;;;25.31;53.91;100762.33;2277593;77;51485;-75
2023/06/20 12:01:02;;;;;;;;;;;;;;;25.30;53.85;100763.36;2296376;77;50619;-76
2023/06/20 12:04:06;;;;;;;;;;;;;;;25.32;53.93;100763.14;2309174;77;50641;-77
2023/06/20 12:07:07;;;;;;;;;;;;;;;25.32;53.78;100758.55;2309186;75;50114;-77
2023/06/20 12:10:11;;;;;;;;;;;;;;;25.32;53.63;100755.02;2309348;77;51474;-76
2023/06/20 12:13:14;;;;;;;;;;;;;;;25.31;53.60;100755.55;2308824;76;50767;-76
2023/06/20 12:16:15;;;;;;;;;;;;;;;25.33;53.56;100742.62;2273554;77;49225;-76
2023/06/20 12:19:19;;;;;;;;;;;;;;;25.36;53.53;100744.88;2232855;79;50678;-77
2023/06/20 12:22:20;;;;;;;;;;;;;;;25.38;53.54;100742.77;2258207;77;51467;-78
2023/06/20 12:25:22;;;;;;;;;;;;;;;25.37;53.57;100749.22;2257842;79;50897;-77
2023/06/20 12:28:24;;;;;;;;;;;;;;;25.37;53.80;100757.34;2210278;79;51244;-77
2023/06/20 12:31:26;;;;;;;;;;;;;;;25.37;53.80;100750.58;2257403;78;50281;-77
2023/06/20 12:34:27;;;;;;;;;;;;;;;25.43;53.78;100751.55;2257452;79;50460;-77
2023/06/20 12:37:30;;;;;;;;;;;;;;;25.41;53.70;100743.66;2273736;76;50315;-75
2023/06/20 12:40:31;;;;;;;;;;;;;;;25.46;53.61;100744.34;2275416;77;51751;-77
2023/06/20 12:43:34;;;;;;;;;;;;;;;25.45;53.73;100739.14;2309013;77;50633;-75
2023/06/20 12:46:37;;;;;;;;;;;;;;;25.46;53.72;100728.09;2303117;76;50386;-75
2023/06/20 12:49:39;;;;;;;;;;;;;;;25.47;53.69;100718.08;2286324;76;51479;-78
2023/06/20 12:52:40;;;;;;;;;;;;;;;25.47;53.86;100720.25;2233957;78;51721;-79
2023/06/20 12:55:42;;;;;;;;;;;;;;;25.45;53.94;100714.76;2233475;78;51526;-78
2023/06/20 12:58:43;;;;;;;;;;;;;;;25.48;53.70;100719.72;2233988;79;51433;-78
2023/06/20 13:01:45;;;;;;;;;;;;;;;25.52;53.54;100725.00;2257649;77;51426;-78
2023/06/20 13:04:47;;;;;;;;;;;;;;;25.53;53.47;100719.86;2234185;78;51658;-77
2023/06/20 13:07:48;;;;;;;;;;;;;;;25.54;53.41;100707.98;2233883;79;51407;-77
2023/06/20 13:10:50;;;;;;;;;;;;;;;25.54;53.38;100716.12;2257229;78;51288;-78
2023/06/20 13:13:51;;;;;;;;;;;;;;;25.54;53.40;100710.70;2257278;79;52340;-78
2023/06/20 13:16:53;;;;;;;;;;;;;;;25.54;53.36;100711.52;2234194;78;52567;-78
2023/06/20 13:19:55;;;;;;;;;;;;;;;25.58;53.35;100711.87;2233399;79;50631;-79
2023/06/20 13:22:57;;;;;;;;;;;;;;;25.58;53.26;100710.52;2257310;77;50050;-78
2023/06/20 13:25:59;;;;;;;;;;;;;;;25.55;53.36;100715.88;2257345;77;51395;-78
2023/06/20 13:29:00;;;;;;;;;;;;;;;25.57;53.22;100712.95;2234308;78;52506;-77
2023/06/20 13:32:02;;;;;;;;;;;;;;;25.57;53.16;100717.01;2233849;77;51396;-77
2023/06/20 13:35:07;;;;;;;;;;;;;;;25.56;53.18;100724.82;2257418;78;50818;-78
2023/06/20 13:38:08;;;;;;;;;;;;;;;25.58;53.16;100721.36;2234724;78;22325;-77
2023/06/20 13:41:10;;;;;;;;;;;;;;;25.57;53.11;100718.36;2234210;79;49606;-77
2023/06/20 13:44:13;;;;;;;;;;;;;;;25.58;53.18;100721.36;2234222;79;50753;-77
2023/06/20 13:47:15;;;;;;;;;;;;;;;25.57;53.18;100717.01;2271616;77;50452;-77
2023/06/20 13:50:16;;;;;;;;;;;;;;;25.57;53.16;100723.78;2261497;77;50774;-78
2023/06/20 13:53:18;;;;;;;;;;;;;;;25.56;53.19;100722.97;2257456;79;50401;-79
2023/06/20 13:56:20;;;;;;;;;;;;;;;25.55;53.20;100722.64;2257226;77;51576;-78
2023/06/20 13:59:22;;;;;;;;;;;;;;;25.56;53.18;100720.75;2257641;78;50211;-79
2023/06/20 14:02:24;;;;;;;;;;;;;;;25.57;53.15;100718.36;2257679;79;51528;-78
2023/06/20 14:05:25;;;;;;;;;;;;;;;25.57;53.14;100719.19;2234229;78;51007;-78
2023/06/20 14:08:27;;;;;;;;;;;;;;;25.59;53.08;100724.39;2257246;78;50626;-79
2023/06/20 14:11:28;;;;;;;;;;;;;;;25.58;53.05;100720.83;2257398;77;49967;-79
2023/06/20 14:14:30;;;;;;;;;;;;;;;25.54;53.15;100718.83;2257721;79;50320;-77
2023/06/20 14:17:33;;;;;;;;;;;;;;;25.55;53.10;100715.88;2229385;77;51580;-77
2023/06/20 14:20:35;;;;;;;;;;;;;;;25.59;53.03;100706.78;2295877;77;50783;-77
2023/06/20 14:23:37;;;;;;;;;;;;;;;25.62;52.93;100704.95;2315636;76;50625;-77
2023/06/20 14:26:39;;;;;;;;;;;;;;;25.60;52.95;100698.94;2316071;77;51470;-79
2023/06/20 14:29:41;;;;;;;;;;;;;;;25.60;52.99;100698.94;2294799;77;51685;-78
2023/06/20 14:32:42;;;;;;;;;;;;;;;25.60;53.05;100690.80;2316009;76;50290;-78
2023/06/20 14:35:48;;;;;;;;;;;;;;;25.59;53.08;100682.39;2293994;77;50236;-78
2023/06/20 14:38:47;;;;;;;;;;;;;;;25.58;53.13;100678.01;2314167;76;22291;-78
2023/06/20 14:41:49;;;;;;;;;;;;;;;25.57;53.07;100679.90;2294060;77;51242;-78
2023/06/20 14:44:52;;;;;;;;;;;;;;;25.59;53.05;100676.97;2294614;77;50471;-77
2023/06/20 14:47:54;;;;;;;;;;;;;;;25.58;53.10;100667.17;2290718;77;51562;-79
2023/06/20 14:50:55;;;;;;;;;;;;;;;25.62;53.17;100658.89;2256909;77;50425;-78
2023/06/20 14:53:57;;;;;;;;;;;;;;;25.58;53.39;100661.22;2234309;79;51735;-78
2023/06/20 14:56:58;;;;;;;;;;;;;;;25.58;53.57;100666.64;2258686;78;50468;-78
2023/06/20 15:00:00;;;;;;;;;;;;;;;25.61;53.55;100666.70;2259125;77;52362;-78
2023/06/20 15:03:02;;;;;;;;;;;;;;;25.59;53.75;100668.31;2236602;78;53435;-78
2023/06/20 15:06:03;;;;;;;;;;;;;;;25.59;53.86;100659.36;2236182;78;49405;-78
2023/06/20 15:09:05;;;;;;;;;;;;;;;25.58;53.84;100658.51;2235818;78;50278;-77
2023/06/20 15:12:07;;;;;;;;;;;;;;;25.62;53.89;100658.89;2259046;78;50235;-78
2023/06/20 15:15:09;;;;;;;;;;;;;;;25.61;54.00;100664.00;2259079;78;50373;-78
2023/06/20 15:18:11;;;;;;;;;;;;;;;25.62;54.10;100658.89;2215761;78;49594;-77
2023/06/20 15:21:13;;;;;;;;;;;;;;;25.60;54.18;100658.29;2305392;76;50799;-77
2023/06/20 15:24:15;;;;;;;;;;;;;;;25.59;54.25;100658.83;2315615;76;50273;-78
2023/06/20 15:27:17;;;;;;;;;;;;;;;25.61;54.25;100653.16;2293392;75;52319;-77
2023/06/20 15:30:19;;;;;;;;;;;;;;;25.62;54.27;100654.83;2293411;77;52620;-78
2023/06/20 15:33:22;;;;;;;;;;;;;;;25.63;54.28;100656.47;2315381;76;50707;-78
2023/06/20 15:36:23;;;;;;;;;;;;;;;25.64;54.23;100654.08;2315126;77;50300;-77